Time;durP1;ratioP1;P1;durP2;ratioP2;P2;SDS_P1;SDS_P2;PMS_P1;PMS_P2;Temp;Humidity;BMP_temperature;BMP_pressure;BME280_temperature;BME280_humidity;BME280_pressure;Samples;Min_cycle;Max_cycle;Signal;HPM_P1;HPM_P2
2023/10/17 00:00:27;;;;;;;6.90;6.65;;;;;;;;;;4213691;28;20040;-66
2023/10/17 00:02:29;;;;;;;6.78;6.68;;;;;;;;;;4229185;28;20043;-67
2023/10/17 00:04:33;;;;;;;8.68;8.20;;;;;;;;;;4230604;28;20092;-66
2023/10/17 00:06:35;;;;;;;5.95;5.72;;;;;;;;;;4230543;28;20071;-66
2023/10/17 00:08:37;;;;;;;6.50;6.40;;;;;;;;;;4230545;28;20039;-66
2023/10/17 00:10:44;;;;;;;7.87;7.43;;;;;;;;;;4230511;28;20515;-66
2023/10/17 00:12:50;;;;;;;6.38;6.28;;;;;;;;;;4230512;28;20342;-67
2023/10/17 00:16:56;;;;;;;9.10;8.63;;;;;;;;;;4230362;28;20055;-67
2023/10/17 00:19:04;;;;;;;8.20;8.10;;;;;;;;;;4230410;28;20372;-66
2023/10/17 00:21:22;;;;;;;7.72;7.32;;;;;;;;;;4230434;28;20313;-66
2023/10/17 00:23:24;;;;;;;7.50;7.30;;;;;;;;;;4227415;28;20450;-66
2023/10/17 00:25:27;;;;;;;8.07;7.88;;;;;;;;;;4213374;28;20036;-66
2023/10/17 00:27:30;;;;;;;7.20;6.90;;;;;;;;;;4213844;28;20047;-66
2023/10/17 00:29:31;;;;;;;8.85;8.73;;;;;;;;;;4213673;28;20047;-66
2023/10/17 00:31:33;;;;;;;8.05;7.85;;;;;;;;;;4225104;28;20067;-66
2023/10/17 00:33:37;;;;;;;6.87;6.77;;;;;;;;;;4229007;28;20155;-66
2023/10/17 00:35:45;;;;;;;8.63;8.43;;;;;;;;;;4230426;28;20599;-66
2023/10/17 00:37:56;;;;;;;8.35;8.25;;;;;;;;;;4230257;28;20035;-66
2023/10/17 00:39:59;;;;;;;8.40;8.20;;;;;;;;;;4229995;28;20454;-66
2023/10/17 00:44:06;;;;;;;9.10;8.48;;;;;;;;;;4230440;28;20043;-66
2023/10/17 00:46:08;;;;;;;9.25;9.05;;;;;;;;;;4228702;28;20036;-66
2023/10/17 00:48:22;;;;;;;9.40;8.98;;;;;;;;;;4213371;28;20048;-66
2023/10/17 00:50:25;;;;;;;9.38;9.27;;;;;;;;;;4213290;28;20048;-67
2023/10/17 00:52:32;;;;;;;8.88;8.75;;;;;;;;;;4213336;28;20044;-66
2023/10/17 00:54:35;;;;;;;8.25;7.95;;;;;;;;;;4213314;28;20127;-66
2023/10/17 00:56:37;;;;;;;;;;;;;;;;;;4213454;28;20048;-66
2023/10/17 00:58:42;;;;;;;7.77;7.57;;;;;;;;;;4212143;28;19974;-66
2023/10/17 01:00:49;;;;;;;6.90;6.78;;;;;;;;;;4214283;28;20054;-65
2023/10/17 01:02:51;;;;;;;7.68;7.18;;;;;;;;;;4231091;28;20043;-66
2023/10/17 01:04:59;;;;;;;8.40;8.30;;;;;;;;;;4230953;28;20146;-66
2023/10/17 01:07:05;;;;;;;7.15;7.05;;;;;;;;;;4233167;28;20046;-66
2023/10/17 01:09:19;;;;;;;7.90;7.70;;;;;;;;;;4233226;28;20104;-65
2023/10/17 01:11:22;;;;;;;8.15;7.93;;;;;;;;;;4233242;28;20063;-65
2023/10/17 01:13:26;;;;;;;7.63;7.30;;;;;;;;;;4233122;28;20039;-65
2023/10/17 01:15:32;;;;;;;8.55;8.38;;;;;;;;;;4216118;28;20040;-65
2023/10/17 01:17:35;;;;;;;8.20;8.10;;;;;;;;;;4216392;28;20089;-66
2023/10/17 01:19:37;;;;;;;;;;;;;;;;;;4216671;28;20499;-65
2023/10/17 01:21:41;;;;;;;9.00;8.75;;;;;;;;;;4216161;28;20364;-65
2023/10/17 01:23:44;;;;;;;7.03;6.93;;;;;;;;;;4216478;28;20042;-65
2023/10/17 01:25:46;;;;;;;8.60;8.50;;;;;;;;;;4216387;28;20036;-65
2023/10/17 01:27:49;;;;;;;8.35;8.23;;;;;;;;;;4216077;28;20036;-66
2023/10/17 01:29:51;;;;;;;8.85;8.35;;;;;;;;;;4224351;28;20039;-66
2023/10/17 01:31:54;;;;;;;9.57;9.47;;;;;;;;;;4232902;28;20399;-65
2023/10/17 01:33:59;;;;;;;9.65;9.45;;;;;;;;;;4232862;28;20133;-65
2023/10/17 01:36:01;;;;;;;9.45;8.82;;;;;;;;;;4232843;28;20071;-66
2023/10/17 01:38:05;;;;;;;9.48;9.07;;;;;;;;;;4232676;28;20031;-65
2023/10/17 01:40:09;;;;;;;8.27;8.05;;;;;;;;;;4232645;28;20036;-65
2023/10/17 01:42:11;;;;;;;9.02;8.93;;;;;;;;;;4232730;28;20039;-66
2023/10/17 01:44:13;;;;;;;8.98;8.82;;;;;;;;;;4232714;28;20046;-66
2023/10/17 01:46:20;;;;;;;9.23;9.05;;;;;;;;;;4232489;28;20042;-65
2023/10/17 01:48:24;;;;;;;8.57;8.40;;;;;;;;;;4232671;28;20384;-65
2023/10/17 01:50:26;;;;;;;7.75;7.65;;;;;;;;;;4232638;28;20063;-66
2023/10/17 01:52:30;;;;;;;9.35;9.05;;;;;;;;;;4232872;28;20507;-66
2023/10/17 01:54:32;;;;;;;9.00;8.40;;;;;;;;;;4232552;28;20552;-65
2023/10/17 01:56:39;;;;;;;8.35;8.25;;;;;;;;;;4232564;28;20052;-66
2023/10/17 01:58:42;;;;;;;8.20;8.10;;;;;;;;;;4232458;28;20032;-65
2023/10/17 02:00:44;;;;;;;9.20;9.10;;;;;;;;;;4232318;28;20051;-65
2023/10/17 02:02:46;;;;;;;10.48;10.20;;;;;;;;;;4232573;28;20092;-66
2023/10/17 02:04:50;;;;;;;9.60;9.37;;;;;;;;;;4232576;28;20036;-66
2023/10/17 02:06:52;;;;;;;8.77;8.57;;;;;;;;;;4231149;28;20285;-65
2023/10/17 02:08:55;;;;;;;9.00;8.70;;;;;;;;;;4232660;28;20051;-65
2023/10/17 02:10:56;;;;;;;8.82;8.63;;;;;;;;;;4232111;28;20051;-66
2023/10/17 02:12:59;;;;;;;8.90;8.63;;;;;;;;;;4232338;28;20043;-66
2023/10/17 02:15:05;;;;;;;8.80;8.52;;;;;;;;;;4232215;28;20281;-65
2023/10/17 02:17:09;;;;;;;9.82;9.43;;;;;;;;;;4217220;28;20063;-66
2023/10/17 02:19:11;;;;;;;8.57;8.48;;;;;;;;;;4215196;28;20102;-65
2023/10/17 02:21:13;;;;;;;10.00;9.80;;;;;;;;;;4218764;27;20488;-66
2023/10/17 02:23:19;;;;;;;9.30;9.00;;;;;;;;;;4236522;27;20313;-65
2023/10/17 02:25:21;;;;;;;10.13;9.65;;;;;;;;;;4231958;28;20040;-65
2023/10/17 02:27:23;;;;;;;9.10;9.00;;;;;;;;;;4231745;28;20040;-66
2023/10/17 02:29:26;;;;;;;9.33;9.23;;;;;;;;;;4232009;28;20515;-66
2023/10/17 02:31:29;;;;;;;9.23;8.82;;;;;;;;;;4231866;28;20047;-66
2023/10/17 02:33:31;;;;;;;8.55;8.35;;;;;;;;;;4231835;28;20542;-65
2023/10/17 02:37:43;;;;;;;9.38;9.13;;;;;;;;;;4231941;28;20097;-66
2023/10/17 02:39:45;;;;;;;9.40;8.80;;;;;;;;;;4231635;28;20044;-65
2023/10/17 02:41:47;;;;;;;8.43;8.02;;;;;;;;;;4231328;28;20047;-66
2023/10/17 02:43:58;;;;;;;9.80;9.45;;;;;;;;;;4231687;28;20085;-66
2023/10/17 02:46:04;;;;;;;7.93;7.82;;;;;;;;;;4231737;28;20458;-66
2023/10/17 02:48:23;;;;;;;8.23;8.13;;;;;;;;;;4231824;28;20039;-66
2023/10/17 02:52:36;;;;;;;7.90;7.80;;;;;;;;;;4231803;28;20040;-65
2023/10/17 02:56:58;;;;;;;7.47;7.40;;;;;;;;;;4231497;28;20035;-66
2023/10/17 02:59:12;;;;;;;9.32;9.13;;;;;;;;;;4231699;28;20032;-66
2023/10/17 03:01:14;;;;;;;7.70;7.43;;;;;;;;;;4236164;27;20040;-65
2023/10/17 03:03:19;;;;;;;7.82;7.63;;;;;;;;;;4248204;27;20043;-66
2023/10/17 03:05:21;;;;;;;9.10;8.60;;;;;;;;;;4248516;27;20043;-66
2023/10/17 03:07:23;;;;;;;;;;;;;;;;;;4236403;27;20391;-66
2023/10/17 03:11:47;;;;;;;7.78;7.68;;;;;;;;;;4231516;28;20043;-65
2023/10/17 03:13:49;;;;;;;6.63;6.50;;;;;;;;;;4214597;28;20036;-66
2023/10/17 03:15:55;;;;;;;7.87;7.70;;;;;;;;;;4214187;28;20109;-65
2023/10/17 03:18:00;;;;;;;8.32;8.07;;;;;;;;;;4214562;28;20514;-66
2023/10/17 03:20:04;;;;;;;7.43;7.22;;;;;;;;;;4214577;28;20051;-65
2023/10/17 03:22:24;;;;;;;8.40;8.13;;;;;;;;;;4219304;28;20487;-65
2023/10/17 03:24:38;;;;;;;9.80;9.60;;;;;;;;;;4231404;28;20070;-66
2023/10/17 03:26:40;;;;;;;10.38;10.13;;;;;;;;;;4230808;28;20390;-66
2023/10/17 03:28:42;;;;;;;9.63;9.27;;;;;;;;;;4231500;28;20042;-65
2023/10/17 03:30:47;;;;;;;10.07;9.98;;;;;;;;;;4231149;28;20282;-65
2023/10/17 03:35:02;;;;;;;9.30;9.20;;;;;;;;;;4231035;28;20044;-65
2023/10/17 03:39:28;;;;;;;9.65;9.45;;;;;;;;;;4230836;28;20078;-66
2023/10/17 03:41:30;;;;;;;10.00;9.68;;;;;;;;;;4231055;28;20063;-66
2023/10/17 03:43:38;;;;;;;8.37;8.27;;;;;;;;;;4231028;28;20035;-66
2023/10/17 03:45:52;;;;;;;8.38;8.20;;;;;;;;;;4231076;28;20063;-66
2023/10/17 03:47:57;;;;;;;8.32;8.13;;;;;;;;;;4230851;28;20036;-66
2023/10/17 03:50:06;;;;;;;7.95;7.75;;;;;;;;;;4230767;28;20047;-66
2023/10/17 03:52:08;;;;;;;7.82;7.72;;;;;;;;;;4230968;28;20483;-66
2023/10/17 03:54:10;;;;;;;8.05;7.85;;;;;;;;;;4230954;28;20503;-66
2023/10/17 03:56:18;;;;;;;8.55;8.40;;;;;;;;;;4230838;28;20050;-66
2023/10/17 04:00:57;;;;;;;8.30;8.07;;;;;;;;;;4230814;28;20031;-66
2023/10/17 04:02:52;;;;;;;8.65;8.55;;;;;;;;;;4228515;28;20476;-66
2023/10/17 04:04:56;;;;;;;8.25;8.15;;;;;;;;;;4230763;28;20067;-66
2023/10/17 04:06:59;;;;;;;8.80;8.48;;;;;;;;;;4229280;28;20040;-66
2023/10/17 04:13:34;;;;;;;7.65;7.55;;;;;;;;;;4220623;28;20417;-66
2023/10/17 04:15:42;;;;;;;7.18;6.97;;;;;;;;;;4213496;28;20127;-66
2023/10/17 04:17:46;;;;;;;9.80;9.70;;;;;;;;;;4214830;28;20123;-65
2023/10/17 04:19:48;;;;;;;9.50;9.20;;;;;;;;;;4225118;28;20054;-66
2023/10/17 04:24:10;;;;;;;8.90;8.80;;;;;;;;;;4247601;28;20062;-65
2023/10/17 04:26:18;;;;;;;9.77;9.57;;;;;;;;;;4229364;28;20123;-66
2023/10/17 04:28:19;;;;;;;9.02;8.93;;;;;;;;;;4230346;28;20491;-66
2023/10/17 04:30:29;;;;;;;8.25;8.15;;;;;;;;;;4230326;28;20054;-66
2023/10/17 04:32:38;;;;;;;8.63;8.50;;;;;;;;;;4230309;28;20048;-65
2023/10/17 04:34:46;;;;;;;8.07;7.97;;;;;;;;;;4230303;28;20036;-66
2023/10/17 04:36:53;;;;;;;8.77;8.63;;;;;;;;;;4229168;28;20097;-65
2023/10/17 04:45:44;;;;;;;10.13;9.98;;;;;;;;;;4216912;28;20087;-65
2023/10/17 04:47:46;;;;;;;9.95;9.40;;;;;;;;;;4216553;28;20093;-66
2023/10/17 04:49:54;;;;;;;10.55;10.18;;;;;;;;;;4216774;28;20463;-66
2023/10/17 04:52:44;;;;;;;9.23;9.02;;;;;;;;;;4223428;28;20069;-66
2023/10/17 04:56:59;;;;;;;9.40;9.30;;;;;;;;;;4233363;28;20096;-65
2023/10/17 04:59:02;;;;;;;9.40;9.27;;;;;;;;;;4221387;28;20373;-65
2023/10/17 05:03:20;;;;;;;9.68;9.48;;;;;;;;;;4233266;28;20043;-68
2023/10/17 05:05:40;;;;;;;9.15;8.77;;;;;;;;;;4224395;28;20047;-68
2023/10/17 06:18:38;;;;;;;9.07;8.68;;;;;;;;;;4232365;27;20039;-65
2023/10/17 06:28:20;;;;;;;9.27;9.07;;;;;;;;;;4232061;28;20040;-65
2023/10/17 06:30:28;;;;;;;9.45;9.30;;;;;;;;;;4231990;28;20035;-68
2023/10/17 06:34:38;;;;;;;7.55;7.30;;;;;;;;;;4232056;28;20039;-67
2023/10/17 06:36:41;;;;;;;9.27;8.48;;;;;;;;;;4231847;28;20446;-67
2023/10/17 06:38:46;;;;;;;7.43;7.22;;;;;;;;;;4231589;28;20480;-67
2023/10/17 06:40:53;;;;;;;7.25;7.15;;;;;;;;;;4231711;28;20043;-67
2023/10/17 06:42:59;;;;;;;7.13;7.03;;;;;;;;;;4231633;28;20044;-68
2023/10/17 06:45:10;;;;;;;6.57;6.38;;;;;;;;;;4231704;28;20032;-67
2023/10/17 06:47:19;;;;;;;6.45;6.07;;;;;;;;;;4231500;28;20046;-67
2023/10/17 06:49:46;;;;;;;6.47;6.10;;;;;;;;;;4231654;28;20100;-67
2023/10/17 06:52:09;;;;;;;7.40;7.20;;;;;;;;;;4231412;28;20093;-67
2023/10/17 06:54:13;;;;;;;6.13;5.80;;;;;;;;;;4230495;28;20511;-67
2023/10/17 06:56:16;;;;;;;5.82;5.63;;;;;;;;;;4231527;28;20093;-67
2023/10/17 06:58:21;;;;;;;5.80;5.50;;;;;;;;;;4230518;28;20100;-68
2023/10/17 07:00:42;;;;;;;4.32;4.15;;;;;;;;;;4230698;28;20036;-68
2023/10/17 07:02:48;;;;;;;3.72;3.53;;;;;;;;;;4231445;28;20044;-67
2023/10/17 07:04:50;;;;;;;4.57;4.22;;;;;;;;;;4231558;27;20046;-67
2023/10/17 07:06:52;;;;;;;4.60;4.50;;;;;;;;;;4229951;28;20039;-67
2023/10/17 07:08:54;;;;;;;4.40;4.20;;;;;;;;;;4231281;28;20047;-67
2023/10/17 07:11:05;;;;;;;5.25;5.10;;;;;;;;;;4231329;28;20410;-67
2023/10/17 07:13:26;;;;;;;5.07;4.87;;;;;;;;;;4231293;28;20067;-67
2023/10/17 07:15:29;;;;;;;4.60;4.50;;;;;;;;;;4231023;28;20309;-68
2023/10/17 07:17:39;;;;;;;4.93;4.72;;;;;;;;;;4231211;28;20047;-67
2023/10/17 07:19:46;;;;;;;4.82;4.72;;;;;;;;;;4231133;28;20036;-67
2023/10/17 07:24:07;;;;;;;5.32;5.22;;;;;;;;;;4231051;28;20039;-67
2023/10/17 07:26:12;;;;;;;6.05;5.63;;;;;;;;;;4229840;28;20126;-68
2023/10/17 07:28:13;;;;;;;5.50;5.35;;;;;;;;;;4231012;28;20552;-67
2023/10/17 07:32:45;;;;;;;6.40;6.30;;;;;;;;;;4214364;28;20666;-67
2023/10/17 07:34:52;;;;;;;5.60;5.50;;;;;;;;;;4231050;28;20526;-68
2023/10/17 07:39:24;;;;;;;4.25;4.00;;;;;;;;;;4230572;28;20036;-67
2023/10/17 07:41:38;;;;;;;3.25;3.15;;;;;;;;;;4230712;28;20089;-67
2023/10/17 07:43:46;;;;;;;4.93;4.63;;;;;;;;;;4229501;28;20089;-67
2023/10/17 07:46:00;;;;;;;3.28;3.17;;;;;;;;;;4230723;28;20061;-68
2023/10/17 07:48:22;;;;;;;4.22;4.10;;;;;;;;;;4221798;28;20089;-67
2023/10/17 07:50:25;;;;;;;5.10;4.85;;;;;;;;;;4230884;28;20050;-68
2023/10/17 07:52:31;;;;;;;3.55;3.45;;;;;;;;;;4229459;28;20058;-68
2023/10/17 07:54:38;;;;;;;3.90;3.70;;;;;;;;;;4218159;28;20123;-68
2023/10/17 07:56:45;;;;;;;5.47;3.53;;;;;;;;;;4213902;28;20044;-67
2023/10/17 07:59:04;;;;;;;2.65;2.45;;;;;;;;;;4229723;28;20070;-68
2023/10/17 08:01:16;;;;;;;2.15;2.15;;;;;;;;;;4230508;28;20032;-67
2023/10/17 08:03:19;;;;;;;2.05;1.95;;;;;;;;;;4230339;28;20044;-68
2023/10/17 08:05:26;;;;;;;1.55;1.45;;;;;;;;;;4230403;28;20040;-67
2023/10/17 08:07:29;;;;;;;1.50;1.40;;;;;;;;;;4230533;28;20051;-67
2023/10/17 08:09:40;;;;;;;1.20;1.20;;;;;;;;;;4230696;28;20063;-67
2023/10/17 08:11:43;;;;;;;3.03;1.40;;;;;;;;;;4227897;28;20108;-68
2023/10/17 08:13:45;;;;;;;2.13;1.00;;;;;;;;;;4228775;28;20089;-68
2023/10/17 08:15:52;;;;;;;2.97;1.60;;;;;;;;;;4228692;28;20059;-67
2023/10/17 08:17:56;;;;;;;2.33;1.00;;;;;;;;;;4228916;28;20046;-67
2023/10/17 08:20:00;;;;;;;2.80;1.00;;;;;;;;;;4228720;28;20509;-68
2023/10/17 08:24:07;;;;;;;2.35;1.00;;;;;;;;;;4228785;28;20036;-67
2023/10/17 08:26:12;;;;;;;6.78;1.20;;;;;;;;;;4229706;28;20043;-67
2023/10/17 08:28:31;;;;;;;0.95;0.90;;;;;;;;;;4230483;28;20085;-67
2023/10/17 08:30:38;;;;;;;1.38;1.20;;;;;;;;;;4230350;28;20057;-67
2023/10/17 08:33:09;;;;;;;0.90;0.90;;;;;;;;;;4230416;28;20047;-68
2023/10/17 08:35:20;;;;;;;1.10;1.00;;;;;;;;;;4230437;28;20449;-67
2023/10/17 08:37:30;;;;;;;0.88;0.88;;;;;;;;;;4230287;28;20047;-67
2023/10/17 08:39:51;;;;;;;0.90;0.90;;;;;;;;;;4230088;28;20040;-67
2023/10/17 08:41:57;;;;;;;1.60;1.00;;;;;;;;;;4230215;28;20036;-67
2023/10/17 08:43:59;;;;;;;1.10;1.10;;;;;;;;;;4228901;28;20065;-67
2023/10/17 08:46:00;;;;;;;1.10;1.00;;;;;;;;;;4230123;28;20446;-67
2023/10/17 08:48:02;;;;;;;1.13;1.00;;;;;;;;;;4230222;28;20066;-67
2023/10/17 08:50:09;;;;;;;1.80;1.00;;;;;;;;;;4223372;28;20036;-67
2023/10/17 08:52:26;;;;;;;1.00;1.00;;;;;;;;;;4213309;28;20047;-67
2023/10/17 08:54:28;;;;;;;2.05;1.33;;;;;;;;;;4213427;28;20179;-67
2023/10/17 08:56:36;;;;;;;;;;;;;;;;;;4213821;28;20123;-67
2023/10/17 08:58:39;;;;;;;1.15;1.10;;;;;;;;;;4228029;28;19928;-67
2023/10/17 09:02:55;;;;;;;1.83;0.90;;;;;;;;;;4230076;28;20044;-67
2023/10/17 09:05:29;;;;;;;0.82;0.82;;;;;;;;;;4230084;28;20036;-67
2023/10/17 09:07:31;;;;;;;3.85;0.93;;;;;;;;;;4230299;28;20123;-68
2023/10/17 09:09:34;;;;;;;1.90;1.08;;;;;;;;;;4230442;28;20036;-67
2023/10/17 09:11:41;;;;;;;;;;;;;;;;;;4230552;28;20471;-68
2023/10/17 09:16:07;;;;;;;1.00;0.90;;;;;;;;;;4229997;28;20056;-67
2023/10/17 09:18:09;;;;;;;2.25;0.90;;;;;;;;;;4228681;28;20052;-68
2023/10/17 09:20:16;;;;;;;1.38;1.15;;;;;;;;;;4230248;28;20035;-67
2023/10/17 09:22:24;;;;;;;1.23;0.90;;;;;;;;;;4230184;28;20040;-67
2023/10/17 09:24:35;;;;;;;0.80;0.80;;;;;;;;;;4232107;28;20051;-67
2023/10/17 09:26:46;;;;;;;1.08;1.00;;;;;;;;;;4233085;28;20450;-67
2023/10/17 09:28:48;;;;;;;1.50;0.90;;;;;;;;;;4233080;28;20038;-67
2023/10/17 09:31:01;;;;;;;3.03;0.90;;;;;;;;;;4232890;28;20043;-65
2023/10/17 09:33:04;;;;;;;3.70;1.48;;;;;;;;;;4232970;28;20467;-65
2023/10/17 09:35:10;;;;;;;0.93;0.93;;;;;;;;;;4233133;28;20040;-65
2023/10/17 09:37:13;;;;;;;2.70;0.90;;;;;;;;;;4233088;28;20044;-64
2023/10/17 09:39:18;;;;;;;0.90;0.90;;;;;;;;;;4232570;28;20067;-65
2023/10/17 09:41:32;;;;;;;2.33;0.90;;;;;;;;;;4232770;28;20038;-65
2023/10/17 09:43:36;;;;;;;2.85;0.82;;;;;;;;;;4233046;28;20050;-64
2023/10/17 09:45:41;;;;;;;2.42;1.00;;;;;;;;;;4230918;28;20529;-64
2023/10/17 09:47:44;;;;;;;2.83;0.90;;;;;;;;;;4220817;28;20479;-65
2023/10/17 09:49:48;;;;;;;0.90;0.90;;;;;;;;;;4229103;28;20123;-65
2023/10/17 09:51:52;;;;;;;1.35;0.90;;;;;;;;;;4232541;28;20586;-65
2023/10/17 09:53:58;;;;;;;1.35;1.00;;;;;;;;;;4230609;28;20517;-65
2023/10/17 09:56:03;;;;;;;2.63;0.88;;;;;;;;;;4231776;28;20093;-64
2023/10/17 09:58:08;;;;;;;0.80;0.80;;;;;;;;;;4229401;28;20096;-64
2023/10/17 10:00:23;;;;;;;2.10;1.00;;;;;;;;;;4230267;28;20135;-64
2023/10/17 10:02:26;;;;;;;1.38;0.93;;;;;;;;;;4231699;28;20064;-64
2023/10/17 10:04:29;;;;;;;0.98;0.80;;;;;;;;;;4229261;28;20437;-64
2023/10/17 10:06:32;;;;;;;1.70;0.90;;;;;;;;;;4228518;28;20065;-65
2023/10/17 10:08:34;;;;;;;1.25;0.90;;;;;;;;;;4229528;28;20044;-65
2023/10/17 10:10:42;;;;;;;1.40;0.80;;;;;;;;;;4231027;28;20315;-65
2023/10/17 10:13:06;;;;;;;1.65;0.70;;;;;;;;;;4226635;28;20115;-64
2023/10/17 10:15:27;;;;;;;3.60;1.45;;;;;;;;;;4229635;28;20531;-64
2023/10/17 10:17:43;;;;;;;0.70;0.70;;;;;;;;;;4227628;28;20039;-64
2023/10/17 10:19:46;;;;;;;0.80;0.80;;;;;;;;;;4229355;28;20160;-64
2023/10/17 10:21:53;;;;;;;1.02;0.80;;;;;;;;;;4231401;28;20040;-65
2023/10/17 10:23:56;;;;;;;0.70;0.70;;;;;;;;;;4232177;28;20390;-64
2023/10/17 10:26:19;;;;;;;0.80;0.80;;;;;;;;;;4228453;28;20073;-64
2023/10/17 10:28:26;;;;;;;0.80;0.80;;;;;;;;;;4223313;28;20028;-64
2023/10/17 10:30:31;;;;;;;0.80;0.80;;;;;;;;;;4231699;28;20054;-65
2023/10/17 10:32:42;;;;;;;0.80;0.80;;;;;;;;;;4231715;28;20126;-64
2023/10/17 10:34:45;;;;;;;0.70;0.70;;;;;;;;;;4231974;28;20040;-64
2023/10/17 10:36:47;;;;;;;2.28;0.80;;;;;;;;;;4222884;28;20156;-64
2023/10/17 10:38:56;;;;;;;0.93;0.93;;;;;;;;;;4227289;28;20040;-65
2023/10/17 10:41:06;;;;;;;0.75;0.75;;;;;;;;;;4223771;28;20036;-64
2023/10/17 10:43:11;;;;;;;1.67;0.70;;;;;;;;;;4214468;28;20040;-64
2023/10/17 10:45:50;;;;;;;0.70;0.70;;;;;;;;;;4224062;28;20468;-64
2023/10/17 10:47:58;;;;;;;2.00;0.60;;;;;;;;;;4194772;28;20052;-64
2023/10/17 10:50:05;;;;;;;0.60;0.60;;;;;;;;;;4194536;28;20080;-65
2023/10/17 10:52:08;;;;;;;0.60;0.60;;;;;;;;;;4195547;28;20048;-64
2023/10/17 10:54:10;;;;;;;0.85;0.68;;;;;;;;;;4195168;28;20600;-64
2023/10/17 10:56:12;;;;;;;1.35;0.60;;;;;;;;;;4195354;28;20051;-65
2023/10/17 10:58:15;;;;;;;1.67;0.60;;;;;;;;;;4186055;28;20051;-65
2023/10/17 11:00:17;;;;;;;2.65;0.70;;;;;;;;;;4201131;28;20040;-65
2023/10/17 11:02:20;;;;;;;;;;;;;;;;;;4194533;28;20130;-64
2023/10/17 11:04:21;;;;;;;1.05;0.70;;;;;;;;;;4191177;28;19924;-64
2023/10/17 11:06:24;;;;;;;0.60;0.60;;;;;;;;;;4172514;28;20239;-65
2023/10/17 11:08:34;;;;;;;0.68;0.68;;;;;;;;;;4191660;28;20078;-65
2023/10/17 11:10:36;;;;;;;0.70;0.70;;;;;;;;;;4176369;28;20063;-64
2023/10/17 11:12:38;;;;;;;0.77;0.60;;;;;;;;;;4185572;28;20048;-64
2023/10/17 11:14:40;;;;;;;0.63;0.63;;;;;;;;;;4194477;28;20065;-64
2023/10/17 11:16:57;;;;;;;0.60;0.60;;;;;;;;;;4186859;28;20464;-65
2023/10/17 11:18:59;;;;;;;1.08;0.70;;;;;;;;;;4190202;28;20132;-65
2023/10/17 11:21:02;;;;;;;0.60;0.60;;;;;;;;;;4187114;28;20565;-64
2023/10/17 11:23:06;;;;;;;1.05;0.60;;;;;;;;;;4178295;28;20040;-65
2023/10/17 11:25:13;;;;;;;0.93;0.70;;;;;;;;;;4207369;28;20077;-64
2023/10/17 11:27:17;;;;;;;0.60;0.60;;;;;;;;;;4213676;28;20044;-65
2023/10/17 11:29:25;;;;;;;0.70;0.70;;;;;;;;;;4220931;28;20123;-65
2023/10/17 11:31:26;;;;;;;1.30;0.60;;;;;;;;;;4225238;27;20101;-64
2023/10/17 11:33:45;;;;;;;0.90;0.90;;;;;;;;;;4223639;28;20052;-65
2023/10/17 11:35:51;;;;;;;0.95;0.60;;;;;;;;;;4225094;28;20043;-64
2023/10/17 11:37:52;;;;;;;0.60;0.60;;;;;;;;;;4227879;28;20048;-64
2023/10/17 11:40:28;;;;;;;0.70;0.70;;;;;;;;;;4226462;28;20056;-64
2023/10/17 11:42:34;;;;;;;3.30;0.60;;;;;;;;;;4230245;28;20118;-65
2023/10/17 11:44:42;;;;;;;1.80;0.60;;;;;;;;;;4230152;28;20035;-64
2023/10/17 11:47:13;;;;;;;0.93;0.93;;;;;;;;;;4226684;28;20032;-64
2023/10/17 11:49:21;;;;;;;0.60;0.60;;;;;;;;;;4229151;28;20089;-64
2023/10/17 11:51:28;;;;;;;;;;;;;;;;;;4230498;28;20542;-64
2023/10/17 11:53:31;;;;;;;0.73;0.60;;;;;;;;;;4229142;28;19924;-64
2023/10/17 11:55:39;;;;;;;0.85;0.80;;;;;;;;;;4216118;28;20051;-64
2023/10/17 11:57:41;;;;;;;2.08;0.60;;;;;;;;;;4219513;28;20137;-64
2023/10/17 11:59:53;;;;;;;0.50;0.50;;;;;;;;;;4229684;28;20044;-65
2023/10/17 12:01:55;;;;;;;3.53;0.70;;;;;;;;;;4215738;28;20038;-64
2023/10/17 12:03:57;;;;;;;0.57;0.57;;;;;;;;;;4230057;28;20116;-63
2023/10/17 12:06:00;;;;;;;2.35;0.60;;;;;;;;;;4229758;28;20042;-64
2023/10/17 12:08:02;;;;;;;0.93;0.90;;;;;;;;;;4227596;28;20081;-65
2023/10/17 12:10:04;;;;;;;0.60;0.60;;;;;;;;;;4229825;28;20043;-64
2023/10/17 12:12:06;;;;;;;0.60;0.60;;;;;;;;;;4223036;28;20044;-64
2023/10/17 12:14:09;;;;;;;0.60;0.60;;;;;;;;;;4225700;28;20028;-65
2023/10/17 12:16:11;;;;;;;0.70;0.70;;;;;;;;;;4219974;28;20079;-65
2023/10/17 12:18:13;;;;;;;0.60;0.60;;;;;;;;;;4215757;28;20060;-64
2023/10/17 12:20:16;;;;;;;1.02;0.50;;;;;;;;;;4224748;28;20028;-64
2023/10/17 12:22:18;;;;;;;0.60;0.60;;;;;;;;;;4229902;28;20088;-65
2023/10/17 12:24:21;;;;;;;0.77;0.68;;;;;;;;;;4230055;28;20036;-64
2023/10/17 12:26:26;;;;;;;1.27;0.70;;;;;;;;;;4229833;28;20040;-64
2023/10/17 12:28:28;;;;;;;0.85;0.70;;;;;;;;;;4229630;28;20052;-63
2023/10/17 12:30:35;;;;;;;1.65;0.80;;;;;;;;;;4228955;28;20082;-65
2023/10/17 12:32:38;;;;;;;1.48;0.70;;;;;;;;;;4229357;28;20067;-64
2023/10/17 12:34:40;;;;;;;0.80;0.60;;;;;;;;;;4226461;28;20044;-64
2023/10/17 12:36:41;;;;;;;0.60;0.60;;;;;;;;;;4212791;28;20523;-64
2023/10/17 12:38:44;;;;;;;0.85;0.60;;;;;;;;;;4212756;28;20095;-64
2023/10/17 12:40:46;;;;;;;0.60;0.60;;;;;;;;;;4218528;28;20109;-64
2023/10/17 12:42:48;;;;;;;0.60;0.60;;;;;;;;;;4229507;28;20035;-63
2023/10/17 12:44:50;;;;;;;0.88;0.60;;;;;;;;;;4229442;28;20499;-64
2023/10/17 12:46:52;;;;;;;;;;;;;;;;;;4217938;28;20040;-65
2023/10/17 12:48:53;;;;;;;0.60;0.60;;;;;;;;;;4222108;28;19923;-64
2023/10/17 12:50:55;;;;;;;0.60;0.60;;;;;;;;;;4228970;28;20042;-65
2023/10/17 12:52:57;;;;;;;1.75;0.70;;;;;;;;;;4226578;28;20050;-65
2023/10/17 12:54:59;;;;;;;0.60;0.60;;;;;;;;;;4226113;28;20446;-64
2023/10/17 12:57:06;;;;;;;0.63;0.60;;;;;;;;;;4224442;28;20510;-64
2023/10/17 12:59:17;;;;;;;1.27;0.68;;;;;;;;;;4219473;28;20047;-65
2023/10/17 13:01:24;;;;;;;0.60;0.60;;;;;;;;;;4232198;28;20063;-64
2023/10/17 13:03:27;;;;;;;0.60;0.60;;;;;;;;;;4232251;28;20084;-64
2023/10/17 13:05:29;;;;;;;0.60;0.60;;;;;;;;;;4231860;28;20044;-64
2023/10/17 13:07:31;;;;;;;0.60;0.60;;;;;;;;;;4232308;28;20130;-65
2023/10/17 13:09:33;;;;;;;0.60;0.60;;;;;;;;;;4232424;28;20035;-64
2023/10/17 13:11:35;;;;;;;0.60;0.60;;;;;;;;;;4232319;28;20040;-65
2023/10/17 13:13:39;;;;;;;1.20;0.60;;;;;;;;;;4232314;28;20039;-64
2023/10/17 13:15:43;;;;;;;0.68;0.60;;;;;;;;;;4232340;28;20055;-64
2023/10/17 13:17:46;;;;;;;0.60;0.60;;;;;;;;;;4231301;28;20043;-64
2023/10/17 13:19:51;;;;;;;0.60;0.60;;;;;;;;;;4232448;28;20093;-66
2023/10/17 13:21:53;;;;;;;1.30;0.60;;;;;;;;;;4232343;28;20048;-64
2023/10/17 13:23:58;;;;;;;0.60;0.60;;;;;;;;;;4232357;27;20039;-65
2023/10/17 13:26:00;;;;;;;1.75;0.60;;;;;;;;;;4232124;28;20050;-64
2023/10/17 13:28:05;;;;;;;1.75;0.60;;;;;;;;;;4232479;28;20054;-65
2023/10/17 13:30:07;;;;;;;11.07;0.85;;;;;;;;;;4232355;28;20398;-65
2023/10/17 13:32:08;;;;;;;4.13;0.70;;;;;;;;;;4218814;28;20101;-65
2023/10/17 13:34:10;;;;;;;0.60;0.60;;;;;;;;;;4215369;28;20447;-65
2023/10/17 13:36:15;;;;;;;0.60;0.60;;;;;;;;;;4215291;28;20498;-64
2023/10/17 13:38:18;;;;;;;1.15;0.60;;;;;;;;;;4215293;28;20114;-66
2023/10/17 13:40:21;;;;;;;0.60;0.60;;;;;;;;;;4215046;28;20044;-65
2023/10/17 13:42:23;;;;;;;2.30;0.60;;;;;;;;;;4231164;28;20555;-64
2023/10/17 13:44:25;;;;;;;0.70;0.70;;;;;;;;;;4231982;28;20499;-64
2023/10/17 13:46:27;;;;;;;0.70;0.70;;;;;;;;;;4227871;28;20039;-64
2023/10/17 13:48:28;;;;;;;0.80;0.80;;;;;;;;;;4215148;28;20128;-64
2023/10/17 13:50:30;;;;;;;0.60;0.60;;;;;;;;;;4215015;28;20404;-65
2023/10/17 13:52:32;;;;;;;0.60;0.60;;;;;;;;;;4215062;28;20416;-64
2023/10/17 13:54:37;;;;;;;2.17;0.98;;;;;;;;;;4215086;28;20036;-65
2023/10/17 13:56:40;;;;;;;1.00;0.93;;;;;;;;;;4215061;28;20036;-65
2023/10/17 13:58:42;;;;;;;0.75;0.70;;;;;;;;;;4228760;28;20059;-64
2023/10/17 14:00:45;;;;;;;1.40;0.70;;;;;;;;;;4231651;28;20036;-64
2023/10/17 14:02:49;;;;;;;2.38;0.70;;;;;;;;;;4231749;28;20607;-65
2023/10/17 14:04:52;;;;;;;0.70;0.70;;;;;;;;;;4231918;28;20042;-64
2023/10/17 14:06:54;;;;;;;0.70;0.70;;;;;;;;;;4224048;28;20028;-65
2023/10/17 14:08:56;;;;;;;0.63;0.63;;;;;;;;;;4230069;28;20081;-64
2023/10/17 14:11:06;;;;;;;0.70;0.70;;;;;;;;;;4229094;28;20047;-64
2023/10/17 14:13:08;;;;;;;0.70;0.70;;;;;;;;;;4229756;28;20039;-64
2023/10/17 14:15:09;;;;;;;0.70;0.70;;;;;;;;;;4230257;28;20097;-65
2023/10/17 14:17:11;;;;;;;0.70;0.70;;;;;;;;;;4230403;28;20100;-64
2023/10/17 14:19:15;;;;;;;1.35;0.70;;;;;;;;;;4229859;28;20142;-64
2023/10/17 14:21:34;;;;;;;2.40;0.77;;;;;;;;;;4229969;28;20040;-64
2023/10/17 14:23:45;;;;;;;1.55;0.70;;;;;;;;;;4231164;27;20035;-64
2023/10/17 14:26:09;;;;;;;0.80;0.80;;;;;;;;;;4230601;28;20031;-64
2023/10/17 14:28:11;;;;;;;1.85;0.80;;;;;;;;;;4224462;28;20063;-64
2023/10/17 14:30:13;;;;;;;0.70;0.70;;;;;;;;;;4226087;28;20043;-64
2023/10/17 14:32:15;;;;;;;0.70;0.70;;;;;;;;;;4224357;28;20039;-64
2023/10/17 14:34:17;;;;;;;0.70;0.70;;;;;;;;;;4229803;27;20035;-65
2023/10/17 14:36:19;;;;;;;0.77;0.77;;;;;;;;;;4227246;28;20160;-65
2023/10/17 14:38:21;;;;;;;1.23;0.80;;;;;;;;;;4230151;28;20437;-65
2023/10/17 14:40:23;;;;;;;3.25;0.70;;;;;;;;;;4230493;28;20415;-65
2023/10/17 14:42:27;;;;;;;0.70;0.70;;;;;;;;;;4230503;28;20104;-65
2023/10/17 14:44:29;;;;;;;0.85;0.80;;;;;;;;;;4226432;27;20048;-64
2023/10/17 14:46:30;;;;;;;0.80;0.80;;;;;;;;;;4230811;28;20110;-65
2023/10/17 14:48:32;;;;;;;2.50;0.77;;;;;;;;;;4226614;28;20046;-64